sensor_id;sensor_type;location;lat;lon;timestamp;temperature;humidity
6260;DHT22;3163;51.516;4.000;2023-08-17T00:01:24;23.60;99.90
6260;DHT22;3163;51.516;4.000;2023-08-17T00:03:50;23.60;99.70
6260;DHT22;3163;51.516;4.000;2023-08-17T00:06:16;23.60;98.80
6260;DHT22;3163;51.516;4.000;2023-08-17T00:08:42;23.50;98.20
6260;DHT22;3163;51.516;4.000;2023-08-17T00:11:08;23.50;98.40
6260;DHT22;3163;51.516;4.000;2023-08-17T00:13:34;23.50;98.10
6260;DHT22;3163;51.516;4.000;2023-08-17T00:16:00;23.50;96.90
6260;DHT22;3163;51.516;4.000;2023-08-17T00:18:26;23.40;96.30
6260;DHT22;3163;51.516;4.000;2023-08-17T00:20:52;23.40;96.20
6260;DHT22;3163;51.516;4.000;2023-08-17T00:23:17;23.40;97.00
6260;DHT22;3163;51.516;4.000;2023-08-17T00:25:43;23.40;96.20
6260;DHT22;3163;51.516;4.000;2023-08-17T00:28:09;23.40;94.00
6260;DHT22;3163;51.516;4.000;2023-08-17T00:30:34;23.40;94.90
6260;DHT22;3163;51.516;4.000;2023-08-17T00:33:03;23.50;93.80
6260;DHT22;3163;51.516;4.000;2023-08-17T00:35:29;23.40;93.20
6260;DHT22;3163;51.516;4.000;2023-08-17T00:37:55;23.40;92.50
6260;DHT22;3163;51.516;4.000;2023-08-17T00:40:20;23.40;92.70
6260;DHT22;3163;51.516;4.000;2023-08-17T00:42:46;23.40;91.40
6260;DHT22;3163;51.516;4.000;2023-08-17T00:45:12;23.40;92.40
6260;DHT22;3163;51.516;4.000;2023-08-17T00:47:37;23.40;92.80
6260;DHT22;3163;51.516;4.000;2023-08-17T00:50:04;23.30;93.10
6260;DHT22;3163;51.516;4.000;2023-08-17T00:52:32;23.30;93.20
6260;DHT22;3163;51.516;4.000;2023-08-17T00:54:58;23.30;91.90
6260;DHT22;3163;51.516;4.000;2023-08-17T00:57:26;23.30;91.50
6260;DHT22;3163;51.516;4.000;2023-08-17T00:59:52;23.30;92.90
6260;DHT22;3163;51.516;4.000;2023-08-17T01:02:18;23.30;91.60
6260;DHT22;3163;51.516;4.000;2023-08-17T01:04:44;23.30;92.00
6260;DHT22;3163;51.516;4.000;2023-08-17T01:07:09;23.30;91.10
6260;DHT22;3163;51.516;4.000;2023-08-17T01:09:36;23.30;90.70
6260;DHT22;3163;51.516;4.000;2023-08-17T01:14:43;23.20;92.10
6260;DHT22;3163;51.516;4.000;2023-08-17T01:17:37;23.30;91.20
6260;DHT22;3163;51.516;4.000;2023-08-17T01:20:07;23.20;91.00
6260;DHT22;3163;51.516;4.000;2023-08-17T01:22:35;23.20;91.60
6260;DHT22;3163;51.516;4.000;2023-08-17T01:25:02;23.10;92.50
6260;DHT22;3163;51.516;4.000;2023-08-17T01:27:39;23.20;91.90
6260;DHT22;3163;51.516;4.000;2023-08-17T01:30:05;23.10;91.70
6260;DHT22;3163;51.516;4.000;2023-08-17T01:32:39;23.20;91.00
6260;DHT22;3163;51.516;4.000;2023-08-17T01:35:46;23.20;91.30
6260;DHT22;3163;51.516;4.000;2023-08-17T01:38:17;23.10;91.80
6260;DHT22;3163;51.516;4.000;2023-08-17T01:40:45;23.10;92.30
6260;DHT22;3163;51.516;4.000;2023-08-17T01:43:12;23.10;91.70
6260;DHT22;3163;51.516;4.000;2023-08-17T01:45:38;23.10;92.10
6260;DHT22;3163;51.516;4.000;2023-08-17T01:48:04;23.10;92.40
6260;DHT22;3163;51.516;4.000;2023-08-17T01:50:30;23.10;91.60
6260;DHT22;3163;51.516;4.000;2023-08-17T01:52:56;23.10;91.60
6260;DHT22;3163;51.516;4.000;2023-08-17T01:55:21;23.10;90.60
6260;DHT22;3163;51.516;4.000;2023-08-17T01:57:50;23.10;90.10
6260;DHT22;3163;51.516;4.000;2023-08-17T02:00:16;23.10;90.70
6260;DHT22;3163;51.516;4.000;2023-08-17T02:02:42;23.10;92.10
6260;DHT22;3163;51.516;4.000;2023-08-17T02:05:08;23.10;91.90
6260;DHT22;3163;51.516;4.000;2023-08-17T02:07:34;23.10;91.80
6260;DHT22;3163;51.516;4.000;2023-08-17T02:09:59;23.10;91.80
6260;DHT22;3163;51.516;4.000;2023-08-17T02:12:25;23.00;91.70
6260;DHT22;3163;51.516;4.000;2023-08-17T02:14:50;23.00;91.80
6260;DHT22;3163;51.516;4.000;2023-08-17T02:17:16;23.00;92.10
6260;DHT22;3163;51.516;4.000;2023-08-17T02:19:44;23.00;92.10
6260;DHT22;3163;51.516;4.000;2023-08-17T02:22:09;23.00;91.30
6260;DHT22;3163;51.516;4.000;2023-08-17T02:24:35;23.00;92.00
6260;DHT22;3163;51.516;4.000;2023-08-17T02:27:01;23.00;92.30
6260;DHT22;3163;51.516;4.000;2023-08-17T02:29:26;23.00;91.90
6260;DHT22;3163;51.516;4.000;2023-08-17T02:31:52;23.00;90.80
6260;DHT22;3163;51.516;4.000;2023-08-17T02:34:18;23.00;90.40
6260;DHT22;3163;51.516;4.000;2023-08-17T02:36:43;23.00;89.20
6260;DHT22;3163;51.516;4.000;2023-08-17T02:39:09;23.00;89.70
6260;DHT22;3163;51.516;4.000;2023-08-17T02:41:35;23.00;90.60
6260;DHT22;3163;51.516;4.000;2023-08-17T02:44:01;23.00;90.30
6260;DHT22;3163;51.516;4.000;2023-08-17T02:46:27;23.00;88.90
6260;DHT22;3163;51.516;4.000;2023-08-17T02:48:52;23.00;89.30
6260;DHT22;3163;51.516;4.000;2023-08-17T02:51:18;22.90;87.50
6260;DHT22;3163;51.516;4.000;2023-08-17T02:53:44;22.90;89.40
6260;DHT22;3163;51.516;4.000;2023-08-17T02:56:10;22.90;88.80
6260;DHT22;3163;51.516;4.000;2023-08-17T02:58:40;22.90;87.90
6260;DHT22;3163;51.516;4.000;2023-08-17T03:01:07;22.80;87.80
6260;DHT22;3163;51.516;4.000;2023-08-17T03:03:33;22.90;88.10
6260;DHT22;3163;51.516;4.000;2023-08-17T03:05:59;22.80;88.10
6260;DHT22;3163;51.516;4.000;2023-08-17T03:08:24;22.80;87.40
6260;DHT22;3163;51.516;4.000;2023-08-17T03:10:50;22.80;85.10
6260;DHT22;3163;51.516;4.000;2023-08-17T03:13:15;22.80;86.60
6260;DHT22;3163;51.516;4.000;2023-08-17T03:15:41;22.90;84.80
6260;DHT22;3163;51.516;4.000;2023-08-17T03:18:06;22.90;82.80
6260;DHT22;3163;51.516;4.000;2023-08-17T03:20:32;22.80;85.70
6260;DHT22;3163;51.516;4.000;2023-08-17T03:22:58;22.80;85.80
6260;DHT22;3163;51.516;4.000;2023-08-17T03:25:23;22.80;85.00
6260;DHT22;3163;51.516;4.000;2023-08-17T03:27:50;22.80;84.70
6260;DHT22;3163;51.516;4.000;2023-08-17T03:30:16;22.80;84.70
6260;DHT22;3163;51.516;4.000;2023-08-17T03:32:41;22.80;86.00
6260;DHT22;3163;51.516;4.000;2023-08-17T03:35:07;22.80;86.50
6260;DHT22;3163;51.516;4.000;2023-08-17T03:37:33;22.80;87.10
6260;DHT22;3163;51.516;4.000;2023-08-17T03:39:58;22.80;85.70
6260;DHT22;3163;51.516;4.000;2023-08-17T03:42:26;22.70;87.20
6260;DHT22;3163;51.516;4.000;2023-08-17T03:44:52;22.70;85.50
6260;DHT22;3163;51.516;4.000;2023-08-17T03:47:18;22.70;86.20
6260;DHT22;3163;51.516;4.000;2023-08-17T03:49:43;22.70;85.90
6260;DHT22;3163;51.516;4.000;2023-08-17T03:52:09;22.70;85.00
6260;DHT22;3163;51.516;4.000;2023-08-17T03:54:35;22.70;85.40
6260;DHT22;3163;51.516;4.000;2023-08-17T03:57:01;22.70;83.70
6260;DHT22;3163;51.516;4.000;2023-08-17T03:59:26;22.70;83.70
6260;DHT22;3163;51.516;4.000;2023-08-17T04:01:52;22.80;82.30
6260;DHT22;3163;51.516;4.000;2023-08-17T04:04:18;22.80;79.90
6260;DHT22;3163;51.516;4.000;2023-08-17T04:06:43;22.70;82.20
6260;DHT22;3163;51.516;4.000;2023-08-17T04:09:09;22.70;83.90
6260;DHT22;3163;51.516;4.000;2023-08-17T04:11:35;22.70;82.70
6260;DHT22;3163;51.516;4.000;2023-08-17T04:14:01;22.70;83.80
6260;DHT22;3163;51.516;4.000;2023-08-17T04:16:26;22.60;80.30
6260;DHT22;3163;51.516;4.000;2023-08-17T04:18:52;22.60;81.00
6260;DHT22;3163;51.516;4.000;2023-08-17T04:21:17;22.60;82.50
6260;DHT22;3163;51.516;4.000;2023-08-17T04:23:43;22.50;81.30
6260;DHT22;3163;51.516;4.000;2023-08-17T04:26:09;22.50;81.40
6260;DHT22;3163;51.516;4.000;2023-08-17T04:28:34;22.50;81.00
6260;DHT22;3163;51.516;4.000;2023-08-17T04:31:00;22.50;81.40
6260;DHT22;3163;51.516;4.000;2023-08-17T04:33:26;22.50;82.10
6260;DHT22;3163;51.516;4.000;2023-08-17T04:35:51;22.50;81.40
6260;DHT22;3163;51.516;4.000;2023-08-17T04:38:17;22.50;79.70
6260;DHT22;3163;51.516;4.000;2023-08-17T04:40:42;22.50;79.00
6260;DHT22;3163;51.516;4.000;2023-08-17T04:43:10;22.60;78.30
6260;DHT22;3163;51.516;4.000;2023-08-17T04:45:36;22.50;76.00
6260;DHT22;3163;51.516;4.000;2023-08-17T04:48:02;22.60;77.00
6260;DHT22;3163;51.516;4.000;2023-08-17T04:50:27;22.50;79.10
6260;DHT22;3163;51.516;4.000;2023-08-17T04:52:53;22.50;75.70
6260;DHT22;3163;51.516;4.000;2023-08-17T04:55:18;22.50;76.70
6260;DHT22;3163;51.516;4.000;2023-08-17T04:57:44;22.50;75.30
6260;DHT22;3163;51.516;4.000;2023-08-17T05:00:10;22.50;77.20
6260;DHT22;3163;51.516;4.000;2023-08-17T05:02:36;22.50;75.50
6260;DHT22;3163;51.516;4.000;2023-08-17T05:05:04;22.50;74.90
6260;DHT22;3163;51.516;4.000;2023-08-17T05:07:30;22.50;73.40
6260;DHT22;3163;51.516;4.000;2023-08-17T05:09:55;22.50;73.80
6260;DHT22;3163;51.516;4.000;2023-08-17T05:12:21;22.60;69.10
6260;DHT22;3163;51.516;4.000;2023-08-17T05:14:46;22.60;71.10
6260;DHT22;3163;51.516;4.000;2023-08-17T05:17:12;22.70;65.20
6260;DHT22;3163;51.516;4.000;2023-08-17T05:19:38;22.70;65.90
6260;DHT22;3163;51.516;4.000;2023-08-17T05:22:05;22.70;61.70
6260;DHT22;3163;51.516;4.000;2023-08-17T05:24:31;22.80;61.20
6260;DHT22;3163;51.516;4.000;2023-08-17T05:26:56;22.80;59.70
6260;DHT22;3163;51.516;4.000;2023-08-17T05:29:23;22.80;60.20
6260;DHT22;3163;51.516;4.000;2023-08-17T05:31:48;22.80;60.10
6260;DHT22;3163;51.516;4.000;2023-08-17T05:34:14;22.90;56.50
6260;DHT22;3163;51.516;4.000;2023-08-17T05:36:40;23.00;54.70
6260;DHT22;3163;51.516;4.000;2023-08-17T05:39:06;23.00;52.50
6260;DHT22;3163;51.516;4.000;2023-08-17T05:41:32;22.90;52.40
6260;DHT22;3163;51.516;4.000;2023-08-17T05:43:57;22.90;52.40
6260;DHT22;3163;51.516;4.000;2023-08-17T05:46:23;22.90;50.60
6260;DHT22;3163;51.516;4.000;2023-08-17T05:48:49;23.00;50.90
6260;DHT22;3163;51.516;4.000;2023-08-17T05:51:15;22.90;52.20
6260;DHT22;3163;51.516;4.000;2023-08-17T05:53:40;23.00;50.70
6260;DHT22;3163;51.516;4.000;2023-08-17T05:56:07;22.90;49.90
6260;DHT22;3163;51.516;4.000;2023-08-17T05:58:32;22.90;50.10
6260;DHT22;3163;51.516;4.000;2023-08-17T06:01:06;23.00;48.50
6260;DHT22;3163;51.516;4.000;2023-08-17T06:03:33;23.10;43.80
6260;DHT22;3163;51.516;4.000;2023-08-17T06:05:59;23.20;38.90
6260;DHT22;3163;51.516;4.000;2023-08-17T06:08:24;23.20;36.60
6260;DHT22;3163;51.516;4.000;2023-08-17T06:10:50;23.20;34.70
6260;DHT22;3163;51.516;4.000;2023-08-17T06:13:16;23.30;33.80
6260;DHT22;3163;51.516;4.000;2023-08-17T06:15:41;23.30;32.50
6260;DHT22;3163;51.516;4.000;2023-08-17T06:18:07;23.30;31.00
6260;DHT22;3163;51.516;4.000;2023-08-17T06:20:32;23.20;31.90
6260;DHT22;3163;51.516;4.000;2023-08-17T06:22:58;23.20;33.40
6260;DHT22;3163;51.516;4.000;2023-08-17T06:25:23;23.20;33.50
6260;DHT22;3163;51.516;4.000;2023-08-17T06:27:51;23.30;29.70
6260;DHT22;3163;51.516;4.000;2023-08-17T06:30:17;23.40;25.20
6260;DHT22;3163;51.516;4.000;2023-08-17T06:32:43;23.30;25.30
6260;DHT22;3163;51.516;4.000;2023-08-17T06:35:08;23.40;23.30
6260;DHT22;3163;51.516;4.000;2023-08-17T06:37:34;23.40;20.60
6260;DHT22;3163;51.516;4.000;2023-08-17T06:40:01;23.40;17.70
6260;DHT22;3163;51.516;4.000;2023-08-17T06:42:26;23.40;15.90
6260;DHT22;3163;51.516;4.000;2023-08-17T06:44:52;23.40;16.70
6260;DHT22;3163;51.516;4.000;2023-08-17T06:47:18;23.40;13.60
6260;DHT22;3163;51.516;4.000;2023-08-17T06:49:44;23.40;13.30
6260;DHT22;3163;51.516;4.000;2023-08-17T06:52:10;23.10;20.50
6260;DHT22;3163;51.516;4.000;2023-08-17T06:54:35;23.30;13.30
6260;DHT22;3163;51.516;4.000;2023-08-17T06:57:01;23.40;11.60
6260;DHT22;3163;51.516;4.000;2023-08-17T06:59:27;23.30;11.70
6260;DHT22;3163;51.516;4.000;2023-08-17T07:01:52;23.40;5.60
6260;DHT22;3163;51.516;4.000;2023-08-17T07:04:18;23.30;7.40
6260;DHT22;3163;51.516;4.000;2023-08-17T07:06:44;23.50;13.00
6260;DHT22;3163;51.516;4.000;2023-08-17T07:09:09;23.30;4.50
6260;DHT22;3163;51.516;4.000;2023-08-17T07:11:38;23.50;1.00
6260;DHT22;3163;51.516;4.000;2023-08-17T07:14:04;23.30;4.80
6260;DHT22;3163;51.516;4.000;2023-08-17T07:16:32;23.30;8.40
6260;DHT22;3163;51.516;4.000;2023-08-17T07:18:57;23.40;4.80
6260;DHT22;3163;51.516;4.000;2023-08-17T07:21:23;23.40;1.20
6260;DHT22;3163;51.516;4.000;2023-08-17T07:23:50;23.40;2.20
6260;DHT22;3163;51.516;4.000;2023-08-17T07:26:16;23.70;1.00
6260;DHT22;3163;51.516;4.000;2023-08-17T07:28:44;23.80;1.00
6260;DHT22;3163;51.516;4.000;2023-08-17T07:31:09;23.80;1.00
6260;DHT22;3163;51.516;4.000;2023-08-17T07:33:35;23.90;1.00
6260;DHT22;3163;51.516;4.000;2023-08-17T07:36:01;23.90;1.00
6260;DHT22;3163;51.516;4.000;2023-08-17T07:38:26;23.90;1.00
6260;DHT22;3163;51.516;4.000;2023-08-17T07:40:52;23.90;1.00
6260;DHT22;3163;51.516;4.000;2023-08-17T07:43:18;23.80;1.00
6260;DHT22;3163;51.516;4.000;2023-08-17T07:45:43;23.80;1.00
6260;DHT22;3163;51.516;4.000;2023-08-17T07:48:09;24.00;1.00
6260;DHT22;3163;51.516;4.000;2023-08-17T07:50:34;24.00;1.00
6260;DHT22;3163;51.516;4.000;2023-08-17T07:53:00;24.00;1.00
6260;DHT22;3163;51.516;4.000;2023-08-17T07:55:26;24.10;1.00
6260;DHT22;3163;51.516;4.000;2023-08-17T07:57:52;24.00;1.00
6260;DHT22;3163;51.516;4.000;2023-08-17T08:00:17;24.00;1.00
6260;DHT22;3163;51.516;4.000;2023-08-17T08:02:43;24.20;1.00
6260;DHT22;3163;51.516;4.000;2023-08-17T08:05:09;24.00;1.00
6260;DHT22;3163;51.516;4.000;2023-08-17T08:07:34;24.10;1.00
6260;DHT22;3163;51.516;4.000;2023-08-17T08:10:00;23.80;1.00
6260;DHT22;3163;51.516;4.000;2023-08-17T08:12:25;24.00;1.00
6260;DHT22;3163;51.516;4.000;2023-08-17T08:14:51;24.00;1.00
6260;DHT22;3163;51.516;4.000;2023-08-17T08:17:17;24.30;1.00
6260;DHT22;3163;51.516;4.000;2023-08-17T08:19:44;24.20;1.00
6260;DHT22;3163;51.516;4.000;2023-08-17T08:22:10;24.20;1.00
6260;DHT22;3163;51.516;4.000;2023-08-17T08:24:36;22.20;47.70
6260;DHT22;3163;51.516;4.000;2023-08-17T08:27:02;22.70;31.80
6260;DHT22;3163;51.516;4.000;2023-08-17T08:29:27;25.60;1.00
6260;DHT22;3163;51.516;4.000;2023-08-17T08:31:53;24.00;1.00
6260;DHT22;3163;51.516;4.000;2023-08-17T08:34:19;23.90;1.00
6260;DHT22;3163;51.516;4.000;2023-08-17T08:36:45;23.90;1.00
6260;DHT22;3163;51.516;4.000;2023-08-17T08:39:10;24.00;1.00
6260;DHT22;3163;51.516;4.000;2023-08-17T08:41:37;24.00;1.00
6260;DHT22;3163;51.516;4.000;2023-08-17T08:44:04;24.00;1.00
6260;DHT22;3163;51.516;4.000;2023-08-17T08:46:30;24.10;1.00
6260;DHT22;3163;51.516;4.000;2023-08-17T08:48:58;24.50;1.00
6260;DHT22;3163;51.516;4.000;2023-08-17T08:51:27;24.50;1.00
6260;DHT22;3163;51.516;4.000;2023-08-17T08:54:02;24.60;1.00
6260;DHT22;3163;51.516;4.000;2023-08-17T08:56:31;24.60;1.00
6260;DHT22;3163;51.516;4.000;2023-08-17T08:59:01;24.70;1.00
6260;DHT22;3163;51.516;4.000;2023-08-17T09:01:27;24.40;1.00
6260;DHT22;3163;51.516;4.000;2023-08-17T09:03:54;24.10;1.00
6260;DHT22;3163;51.516;4.000;2023-08-17T09:06:22;24.60;1.00
6260;DHT22;3163;51.516;4.000;2023-08-17T09:08:49;24.90;1.00
6260;DHT22;3163;51.516;4.000;2023-08-17T09:11:14;24.90;1.00
6260;DHT22;3163;51.516;4.000;2023-08-17T09:13:40;25.10;1.00
6260;DHT22;3163;51.516;4.000;2023-08-17T09:16:06;25.20;1.00
6260;DHT22;3163;51.516;4.000;2023-08-17T09:18:31;25.20;1.00
6260;DHT22;3163;51.516;4.000;2023-08-17T09:20:57;25.40;1.00
6260;DHT22;3163;51.516;4.000;2023-08-17T09:23:22;25.50;1.00
6260;DHT22;3163;51.516;4.000;2023-08-17T09:25:49;25.40;1.00
6260;DHT22;3163;51.516;4.000;2023-08-17T09:28:18;25.40;1.00
6260;DHT22;3163;51.516;4.000;2023-08-17T09:30:57;25.10;1.00
6260;DHT22;3163;51.516;4.000;2023-08-17T09:33:25;25.20;1.00
6260;DHT22;3163;51.516;4.000;2023-08-17T09:35:52;25.50;1.00
6260;DHT22;3163;51.516;4.000;2023-08-17T09:38:18;25.90;1.00
6260;DHT22;3163;51.516;4.000;2023-08-17T09:40:44;25.80;1.00
6260;DHT22;3163;51.516;4.000;2023-08-17T09:43:10;25.90;1.00
6260;DHT22;3163;51.516;4.000;2023-08-17T09:45:37;25.80;1.00
6260;DHT22;3163;51.516;4.000;2023-08-17T09:48:04;25.70;1.00
6260;DHT22;3163;51.516;4.000;2023-08-17T09:50:30;25.30;1.00
6260;DHT22;3163;51.516;4.000;2023-08-17T09:52:55;25.60;1.00
6260;DHT22;3163;51.516;4.000;2023-08-17T09:55:24;25.40;1.00
6260;DHT22;3163;51.516;4.000;2023-08-17T09:57:51;25.30;1.00
6260;DHT22;3163;51.516;4.000;2023-08-17T10:00:19;25.10;1.00
6260;DHT22;3163;51.516;4.000;2023-08-17T10:02:45;25.20;1.00
6260;DHT22;3163;51.516;4.000;2023-08-17T10:05:12;25.30;1.00
6260;DHT22;3163;51.516;4.000;2023-08-17T10:07:41;25.40;1.00
6260;DHT22;3163;51.516;4.000;2023-08-17T10:10:09;25.40;1.00
6260;DHT22;3163;51.516;4.000;2023-08-17T10:13:10;25.50;1.00
6260;DHT22;3163;51.516;4.000;2023-08-17T10:15:54;25.80;1.00
6260;DHT22;3163;51.516;4.000;2023-08-17T10:18:50;25.90;1.00
6260;DHT22;3163;51.516;4.000;2023-08-17T10:21:28;25.80;1.00
6260;DHT22;3163;51.516;4.000;2023-08-17T10:23:56;25.40;1.00
6260;DHT22;3163;51.516;4.000;2023-08-17T10:26:23;25.30;1.00
6260;DHT22;3163;51.516;4.000;2023-08-17T10:28:50;25.40;1.00
6260;DHT22;3163;51.516;4.000;2023-08-17T10:31:17;25.50;1.00
6260;DHT22;3163;51.516;4.000;2023-08-17T10:33:44;25.70;1.00
6260;DHT22;3163;51.516;4.000;2023-08-17T10:36:12;25.60;1.00
6260;DHT22;3163;51.516;4.000;2023-08-17T10:38:38;25.60;1.00
6260;DHT22;3163;51.516;4.000;2023-08-17T10:41:22;25.50;1.00
6260;DHT22;3163;51.516;4.000;2023-08-17T10:43:57;25.60;1.00
6260;DHT22;3163;51.516;4.000;2023-08-17T10:46:33;25.50;1.00
6260;DHT22;3163;51.516;4.000;2023-08-17T10:49:04;25.30;1.00
6260;DHT22;3163;51.516;4.000;2023-08-17T10:51:33;25.00;1.00
6260;DHT22;3163;51.516;4.000;2023-08-17T10:54:02;25.00;1.00
6260;DHT22;3163;51.516;4.000;2023-08-17T10:56:28;25.40;1.00
6260;DHT22;3163;51.516;4.000;2023-08-17T10:58:58;25.50;1.00
6260;DHT22;3163;51.516;4.000;2023-08-17T11:01:36;25.60;1.00
6260;DHT22;3163;51.516;4.000;2023-08-17T11:04:17;25.60;1.00
6260;DHT22;3163;51.516;4.000;2023-08-17T11:06:44;25.70;1.00
6260;DHT22;3163;51.516;4.000;2023-08-17T11:09:10;25.70;1.00
6260;DHT22;3163;51.516;4.000;2023-08-17T11:11:37;25.60;1.00
6260;DHT22;3163;51.516;4.000;2023-08-17T11:14:03;25.60;1.00
6260;DHT22;3163;51.516;4.000;2023-08-17T11:16:29;25.50;1.00
6260;DHT22;3163;51.516;4.000;2023-08-17T11:18:54;25.30;1.00
6260;DHT22;3163;51.516;4.000;2023-08-17T11:21:24;25.30;1.00
6260;DHT22;3163;51.516;4.000;2023-08-17T11:23:49;25.20;1.00
6260;DHT22;3163;51.516;4.000;2023-08-17T11:26:19;25.20;1.00
6260;DHT22;3163;51.516;4.000;2023-08-17T11:28:44;25.20;1.00
6260;DHT22;3163;51.516;4.000;2023-08-17T11:31:12;25.20;1.00
6260;DHT22;3163;51.516;4.000;2023-08-17T11:33:39;25.20;1.00
6260;DHT22;3163;51.516;4.000;2023-08-17T11:36:07;25.30;1.00
6260;DHT22;3163;51.516;4.000;2023-08-17T11:38:37;25.40;1.00
6260;DHT22;3163;51.516;4.000;2023-08-17T11:41:04;25.40;1.00
6260;DHT22;3163;51.516;4.000;2023-08-17T11:43:31;25.50;1.00
6260;DHT22;3163;51.516;4.000;2023-08-17T11:45:57;25.40;1.00
6260;DHT22;3163;51.516;4.000;2023-08-17T11:48:24;25.20;1.00
6260;DHT22;3163;51.516;4.000;2023-08-17T11:50:50;25.30;1.00
6260;DHT22;3163;51.516;4.000;2023-08-17T11:53:16;25.40;1.00
6260;DHT22;3163;51.516;4.000;2023-08-17T11:55:43;25.50;1.00
6260;DHT22;3163;51.516;4.000;2023-08-17T11:58:08;25.60;1.00
6260;DHT22;3163;51.516;4.000;2023-08-17T12:00:36;25.60;1.00
6260;DHT22;3163;51.516;4.000;2023-08-17T12:03:02;25.60;1.00
6260;DHT22;3163;51.516;4.000;2023-08-17T12:05:31;25.50;1.00
6260;DHT22;3163;51.516;4.000;2023-08-17T12:08:00;25.60;1.00
6260;DHT22;3163;51.516;4.000;2023-08-17T12:10:31;25.40;1.00
6260;DHT22;3163;51.516;4.000;2023-08-17T12:13:00;25.40;1.00
6260;DHT22;3163;51.516;4.000;2023-08-17T12:15:33;25.20;1.00
6260;DHT22;3163;51.516;4.000;2023-08-17T12:18:01;25.30;1.00
6260;DHT22;3163;51.516;4.000;2023-08-17T12:20:27;25.40;1.00
6260;DHT22;3163;51.516;4.000;2023-08-17T12:22:53;25.30;1.00
6260;DHT22;3163;51.516;4.000;2023-08-17T12:25:21;25.40;1.00
6260;DHT22;3163;51.516;4.000;2023-08-17T12:27:49;25.40;1.00
6260;DHT22;3163;51.516;4.000;2023-08-17T12:30:29;25.40;1.00
6260;DHT22;3163;51.516;4.000;2023-08-17T12:32:56;25.30;1.00
6260;DHT22;3163;51.516;4.000;2023-08-17T12:35:22;25.20;1.00
6260;DHT22;3163;51.516;4.000;2023-08-17T12:37:50;25.00;1.00
6260;DHT22;3163;51.516;4.000;2023-08-17T12:40:16;24.80;1.00
6260;DHT22;3163;51.516;4.000;2023-08-17T12:42:41;25.00;1.00
6260;DHT22;3163;51.516;4.000;2023-08-17T12:45:07;25.00;1.00
6260;DHT22;3163;51.516;4.000;2023-08-17T12:47:33;25.20;1.00
6260;DHT22;3163;51.516;4.000;2023-08-17T12:49:59;25.20;1.00
6260;DHT22;3163;51.516;4.000;2023-08-17T12:52:26;25.10;1.00
6260;DHT22;3163;51.516;4.000;2023-08-17T12:54:53;25.20;1.00
6260;DHT22;3163;51.516;4.000;2023-08-17T12:57:18;25.20;1.00
6260;DHT22;3163;51.516;4.000;2023-08-17T12:59:44;25.20;1.00
6260;DHT22;3163;51.516;4.000;2023-08-17T13:02:10;25.20;1.00
6260;DHT22;3163;51.516;4.000;2023-08-17T13:04:35;25.20;1.00
6260;DHT22;3163;51.516;4.000;2023-08-17T13:07:01;25.00;1.00
6260;DHT22;3163;51.516;4.000;2023-08-17T13:09:27;25.10;1.00
6260;DHT22;3163;51.516;4.000;2023-08-17T13:11:53;25.20;1.00
6260;DHT22;3163;51.516;4.000;2023-08-17T13:14:18;25.10;1.00
6260;DHT22;3163;51.516;4.000;2023-08-17T13:16:44;25.10;1.00
6260;DHT22;3163;51.516;4.000;2023-08-17T13:19:10;25.10;1.00
6260;DHT22;3163;51.516;4.000;2023-08-17T13:21:35;25.10;1.00
6260;DHT22;3163;51.516;4.000;2023-08-17T13:24:01;25.10;1.00
6260;DHT22;3163;51.516;4.000;2023-08-17T13:26:28;25.10;1.00
6260;DHT22;3163;51.516;4.000;2023-08-17T13:28:55;25.10;1.00
6260;DHT22;3163;51.516;4.000;2023-08-17T13:31:21;24.90;1.00
6260;DHT22;3163;51.516;4.000;2023-08-17T13:33:46;24.70;2.40
6260;DHT22;3163;51.516;4.000;2023-08-17T13:36:12;24.90;1.00
6260;DHT22;3163;51.516;4.000;2023-08-17T13:38:38;24.80;1.00
6260;DHT22;3163;51.516;4.000;2023-08-17T13:41:04;24.90;1.00
6260;DHT22;3163;51.516;4.000;2023-08-17T13:43:30;25.00;1.00
6260;DHT22;3163;51.516;4.000;2023-08-17T13:45:55;25.00;1.00
6260;DHT22;3163;51.516;4.000;2023-08-17T13:48:21;25.10;1.00
6260;DHT22;3163;51.516;4.000;2023-08-17T13:50:47;25.00;1.00
6260;DHT22;3163;51.516;4.000;2023-08-17T13:53:13;24.90;1.00
6260;DHT22;3163;51.516;4.000;2023-08-17T13:55:38;24.80;3.20
6260;DHT22;3163;51.516;4.000;2023-08-17T13:58:04;24.70;11.60
6260;DHT22;3163;51.516;4.000;2023-08-17T14:00:30;24.60;14.20
6260;DHT22;3163;51.516;4.000;2023-08-17T14:02:56;24.70;14.00
6260;DHT22;3163;51.516;4.000;2023-08-17T14:05:22;23.50;76.70
6260;DHT22;3163;51.516;4.000;2023-08-17T14:07:48;24.00;56.00
6260;DHT22;3163;51.516;4.000;2023-08-17T14:10:14;24.40;36.80
6260;DHT22;3163;51.516;4.000;2023-08-17T14:12:39;24.20;39.70
6260;DHT22;3163;51.516;4.000;2023-08-17T14:15:06;24.10;47.10
6260;DHT22;3163;51.516;4.000;2023-08-17T14:17:32;24.20;55.40
6260;DHT22;3163;51.516;4.000;2023-08-17T14:19:57;24.10;57.80
6260;DHT22;3163;51.516;4.000;2023-08-17T14:22:23;23.80;88.60
6260;DHT22;3163;51.516;4.000;2023-08-17T14:24:48;24.00;65.70
6260;DHT22;3163;51.516;4.000;2023-08-17T14:27:14;24.10;65.20
6260;DHT22;3163;51.516;4.000;2023-08-17T14:29:40;24.10;64.90
6260;DHT22;3163;51.516;4.000;2023-08-17T14:32:07;24.40;51.60
6260;DHT22;3163;51.516;4.000;2023-08-17T14:34:32;24.50;46.10
6260;DHT22;3163;51.516;4.000;2023-08-17T14:36:58;24.40;45.50
6260;DHT22;3163;51.516;4.000;2023-08-17T14:39:23;24.60;39.10
6260;DHT22;3163;51.516;4.000;2023-08-17T14:41:49;24.50;40.40
6260;DHT22;3163;51.516;4.000;2023-08-17T14:44:15;24.50;43.30
6260;DHT22;3163;51.516;4.000;2023-08-17T14:46:42;24.40;44.50
6260;DHT22;3163;51.516;4.000;2023-08-17T14:49:08;24.60;38.60
6260;DHT22;3163;51.516;4.000;2023-08-17T14:51:40;24.50;40.00
6260;DHT22;3163;51.516;4.000;2023-08-17T14:54:06;24.40;45.70
6260;DHT22;3163;51.516;4.000;2023-08-17T14:56:32;24.50;44.00
6260;DHT22;3163;51.516;4.000;2023-08-17T14:58:58;24.60;39.00
6260;DHT22;3163;51.516;4.000;2023-08-17T15:01:24;24.60;42.30
6260;DHT22;3163;51.516;4.000;2023-08-17T15:03:50;24.50;43.10
6260;DHT22;3163;51.516;4.000;2023-08-17T15:06:16;24.50;45.70
6260;DHT22;3163;51.516;4.000;2023-08-17T15:08:41;23.70;98.50
6260;DHT22;3163;51.516;4.000;2023-08-17T15:11:07;24.20;71.20
6260;DHT22;3163;51.516;4.000;2023-08-17T15:13:33;24.40;56.50
6260;DHT22;3163;51.516;4.000;2023-08-17T15:15:58;24.40;57.10
6260;DHT22;3163;51.516;4.000;2023-08-17T15:18:24;24.50;52.60
6260;DHT22;3163;51.516;4.000;2023-08-17T15:20:50;24.30;60.60
6260;DHT22;3163;51.516;4.000;2023-08-17T15:23:15;24.30;63.60
6260;DHT22;3163;51.516;4.000;2023-08-17T15:25:41;24.30;62.30
6260;DHT22;3163;51.516;4.000;2023-08-17T15:28:07;24.60;49.50
6260;DHT22;3163;51.516;4.000;2023-08-17T15:30:32;24.60;45.30
6260;DHT22;3163;51.516;4.000;2023-08-17T15:32:58;24.60;44.70
6260;DHT22;3163;51.516;4.000;2023-08-17T15:35:24;24.40;52.10
6260;DHT22;3163;51.516;4.000;2023-08-17T15:37:49;24.60;45.70
6260;DHT22;3163;51.516;4.000;2023-08-17T15:40:15;24.50;45.00
6260;DHT22;3163;51.516;4.000;2023-08-17T15:42:41;24.60;44.10
6260;DHT22;3163;51.516;4.000;2023-08-17T15:45:07;24.40;53.00
6260;DHT22;3163;51.516;4.000;2023-08-17T15:47:33;24.30;58.80
6260;DHT22;3163;51.516;4.000;2023-08-17T15:49:59;24.30;59.40
6260;DHT22;3163;51.516;4.000;2023-08-17T15:52:25;24.60;45.70
6260;DHT22;3163;51.516;4.000;2023-08-17T15:54:51;24.60;44.00
6260;DHT22;3163;51.516;4.000;2023-08-17T15:57:16;24.60;44.40
6260;DHT22;3163;51.516;4.000;2023-08-17T15:59:42;24.70;40.50
6260;DHT22;3163;51.516;4.000;2023-08-17T16:02:07;24.60;42.20
6260;DHT22;3163;51.516;4.000;2023-08-17T16:04:34;24.60;43.10
6260;DHT22;3163;51.516;4.000;2023-08-17T16:06:59;24.60;41.70
6260;DHT22;3163;51.516;4.000;2023-08-17T16:09:25;24.60;43.70